sensor_id;sensor_type;location;lat;lon;timestamp;P1;durP1;ratioP1;P2;durP2;ratioP2
24096;SDS011;12275;48.550;12.132;2023-06-24T00:01:23;1305.43;;;999.90;;
24096;SDS011;12275;48.550;12.132;2023-06-24T00:03:49;1308.85;;;999.90;;
24096;SDS011;12275;48.550;12.132;2023-06-24T00:06:18;1317.77;;;999.90;;
24096;SDS011;12275;48.550;12.132;2023-06-24T00:08:47;1317.97;;;999.90;;
24096;SDS011;12275;48.550;12.132;2023-06-24T00:11:13;1323.45;;;999.90;;
24096;SDS011;12275;48.550;12.132;2023-06-24T00:13:39;1308.18;;;999.90;;
24096;SDS011;12275;48.550;12.132;2023-06-24T00:16:05;1311.80;;;999.90;;
24096;SDS011;12275;48.550;12.132;2023-06-24T00:18:32;1317.63;;;999.90;;
24096;SDS011;12275;48.550;12.132;2023-06-24T00:20:58;1307.60;;;999.90;;
24096;SDS011;12275;48.550;12.132;2023-06-24T00:23:26;1311.90;;;999.90;;
24096;SDS011;12275;48.550;12.132;2023-06-24T00:25:52;1317.80;;;999.90;;
24096;SDS011;12275;48.550;12.132;2023-06-24T00:28:19;1327.60;;;999.90;;
24096;SDS011;12275;48.550;12.132;2023-06-24T00:30:46;1317.33;;;999.90;;
24096;SDS011;12275;48.550;12.132;2023-06-24T00:33:12;1317.50;;;999.90;;
24096;SDS011;12275;48.550;12.132;2023-06-24T00:35:38;1309.93;;;999.90;;
24096;SDS011;12275;48.550;12.132;2023-06-24T00:38:04;1319.95;;;999.90;;
24096;SDS011;12275;48.550;12.132;2023-06-24T00:40:31;1316.53;;;999.90;;
24096;SDS011;12275;48.550;12.132;2023-06-24T00:42:57;1311.33;;;999.90;;
24096;SDS011;12275;48.550;12.132;2023-06-24T00:45:23;1314.23;;;999.90;;
24096;SDS011;12275;48.550;12.132;2023-06-24T00:47:49;1306.07;;;999.90;;
24096;SDS011;12275;48.550;12.132;2023-06-24T00:50:16;1312.47;;;999.90;;
24096;SDS011;12275;48.550;12.132;2023-06-24T00:52:42;1314.50;;;999.90;;
24096;SDS011;12275;48.550;12.132;2023-06-24T00:55:11;1314.60;;;999.90;;
24096;SDS011;12275;48.550;12.132;2023-06-24T00:57:38;1320.88;;;999.90;;
24096;SDS011;12275;48.550;12.132;2023-06-24T01:00:05;1306.82;;;999.90;;
24096;SDS011;12275;48.550;12.132;2023-06-24T01:02:38;1296.95;;;999.90;;
24096;SDS011;12275;48.550;12.132;2023-06-24T01:05:07;1300.13;;;999.90;;
24096;SDS011;12275;48.550;12.132;2023-06-24T01:07:33;1322.25;;;999.90;;
24096;SDS011;12275;48.550;12.132;2023-06-24T01:10:01;1321.95;;;999.90;;
24096;SDS011;12275;48.550;12.132;2023-06-24T01:12:27;1319.70;;;999.90;;
24096;SDS011;12275;48.550;12.132;2023-06-24T01:14:53;1317.05;;;999.90;;
24096;SDS011;12275;48.550;12.132;2023-06-24T01:17:22;1310.13;;;999.90;;
24096;SDS011;12275;48.550;12.132;2023-06-24T01:22:35;1315.57;;;999.90;;
24096;SDS011;12275;48.550;12.132;2023-06-24T01:27:45;1317.85;;;999.90;;
24096;SDS011;12275;48.550;12.132;2023-06-24T01:33:02;1319.40;;;999.90;;
24096;SDS011;12275;48.550;12.132;2023-06-24T01:35:31;1322.55;;;999.90;;
24096;SDS011;12275;48.550;12.132;2023-06-24T01:37:59;1317.43;;;999.90;;
24096;SDS011;12275;48.550;12.132;2023-06-24T01:42:52;1317.10;;;999.90;;
24096;SDS011;12275;48.550;12.132;2023-06-24T01:45:19;1316.10;;;999.90;;
24096;SDS011;12275;48.550;12.132;2023-06-24T01:47:47;1313.77;;;999.90;;
24096;SDS011;12275;48.550;12.132;2023-06-24T01:50:14;1315.30;;;999.90;;
24096;SDS011;12275;48.550;12.132;2023-06-24T01:52:43;1327.03;;;999.90;;
24096;SDS011;12275;48.550;12.132;2023-06-24T01:55:10;1330.00;;;999.90;;
24096;SDS011;12275;48.550;12.132;2023-06-24T01:57:36;1322.47;;;999.90;;
24096;SDS011;12275;48.550;12.132;2023-06-24T02:00:04;1323.97;;;999.90;;
24096;SDS011;12275;48.550;12.132;2023-06-24T02:02:31;1322.30;;;999.90;;
24096;SDS011;12275;48.550;12.132;2023-06-24T02:04:57;1315.57;;;999.90;;
24096;SDS011;12275;48.550;12.132;2023-06-24T02:07:26;1320.72;;;999.90;;
24096;SDS011;12275;48.550;12.132;2023-06-24T02:09:57;1316.82;;;999.90;;
24096;SDS011;12275;48.550;12.132;2023-06-24T02:12:23;1321.57;;;999.90;;
24096;SDS011;12275;48.550;12.132;2023-06-24T02:14:50;1308.25;;;999.90;;
24096;SDS011;12275;48.550;12.132;2023-06-24T02:17:17;1319.03;;;999.90;;
24096;SDS011;12275;48.550;12.132;2023-06-24T02:19:43;1312.72;;;999.90;;
24096;SDS011;12275;48.550;12.132;2023-06-24T02:22:09;1308.27;;;999.90;;
24096;SDS011;12275;48.550;12.132;2023-06-24T02:24:36;1304.32;;;999.90;;
24096;SDS011;12275;48.550;12.132;2023-06-24T02:27:03;1302.22;;;999.90;;
24096;SDS011;12275;48.550;12.132;2023-06-24T02:29:29;1300.07;;;999.90;;
24096;SDS011;12275;48.550;12.132;2023-06-24T02:31:56;1297.78;;;999.90;;
24096;SDS011;12275;48.550;12.132;2023-06-24T02:34:22;1307.75;;;999.90;;
24096;SDS011;12275;48.550;12.132;2023-06-24T02:36:49;1306.28;;;999.90;;
24096;SDS011;12275;48.550;12.132;2023-06-24T02:39:15;1316.95;;;999.90;;
24096;SDS011;12275;48.550;12.132;2023-06-24T02:41:41;1312.55;;;999.90;;
24096;SDS011;12275;48.550;12.132;2023-06-24T02:44:09;1306.38;;;999.90;;
24096;SDS011;12275;48.550;12.132;2023-06-24T02:46:35;1314.07;;;999.90;;
24096;SDS011;12275;48.550;12.132;2023-06-24T02:49:02;1322.78;;;999.90;;
24096;SDS011;12275;48.550;12.132;2023-06-24T02:51:28;1318.03;;;999.90;;
24096;SDS011;12275;48.550;12.132;2023-06-24T02:53:55;1329.07;;;999.90;;
24096;SDS011;12275;48.550;12.132;2023-06-24T02:56:23;1305.30;;;999.90;;
24096;SDS011;12275;48.550;12.132;2023-06-24T02:58:49;1312.28;;;999.90;;
24096;SDS011;12275;48.550;12.132;2023-06-24T03:01:17;1319.60;;;999.90;;
24096;SDS011;12275;48.550;12.132;2023-06-24T03:03:43;1326.53;;;999.90;;
24096;SDS011;12275;48.550;12.132;2023-06-24T03:06:14;1319.63;;;999.90;;
24096;SDS011;12275;48.550;12.132;2023-06-24T03:08:42;1322.30;;;999.90;;
24096;SDS011;12275;48.550;12.132;2023-06-24T03:11:12;1325.60;;;999.90;;
24096;SDS011;12275;48.550;12.132;2023-06-24T03:13:39;1325.32;;;999.90;;
24096;SDS011;12275;48.550;12.132;2023-06-24T03:16:05;1331.13;;;999.90;;
24096;SDS011;12275;48.550;12.132;2023-06-24T03:18:31;1331.78;;;999.90;;
24096;SDS011;12275;48.550;12.132;2023-06-24T03:20:57;1329.77;;;999.90;;
24096;SDS011;12275;48.550;12.132;2023-06-24T03:23:23;1345.20;;;999.90;;
24096;SDS011;12275;48.550;12.132;2023-06-24T03:25:49;1337.05;;;999.90;;
24096;SDS011;12275;48.550;12.132;2023-06-24T03:28:15;1333.55;;;999.90;;
24096;SDS011;12275;48.550;12.132;2023-06-24T03:30:41;1340.25;;;999.90;;
24096;SDS011;12275;48.550;12.132;2023-06-24T03:33:07;1325.20;;;999.90;;
24096;SDS011;12275;48.550;12.132;2023-06-24T03:35:33;1321.65;;;999.90;;
24096;SDS011;12275;48.550;12.132;2023-06-24T03:37:59;1333.05;;;999.90;;
24096;SDS011;12275;48.550;12.132;2023-06-24T03:40:25;1328.47;;;999.90;;
24096;SDS011;12275;48.550;12.132;2023-06-24T03:42:51;1327.70;;;999.90;;
24096;SDS011;12275;48.550;12.132;2023-06-24T03:45:17;1325.18;;;999.90;;
24096;SDS011;12275;48.550;12.132;2023-06-24T03:47:43;1329.87;;;999.90;;
24096;SDS011;12275;48.550;12.132;2023-06-24T03:50:09;1333.57;;;999.90;;
24096;SDS011;12275;48.550;12.132;2023-06-24T03:52:35;1326.22;;;999.90;;
24096;SDS011;12275;48.550;12.132;2023-06-24T03:55:01;1335.70;;;999.90;;
24096;SDS011;12275;48.550;12.132;2023-06-24T03:57:29;1326.55;;;999.90;;
24096;SDS011;12275;48.550;12.132;2023-06-24T03:59:55;1336.82;;;999.90;;
24096;SDS011;12275;48.550;12.132;2023-06-24T04:02:21;1326.03;;;999.90;;
24096;SDS011;12275;48.550;12.132;2023-06-24T04:04:47;1328.55;;;999.90;;
24096;SDS011;12275;48.550;12.132;2023-06-24T04:07:17;1334.50;;;999.90;;
24096;SDS011;12275;48.550;12.132;2023-06-24T04:09:53;1337.28;;;999.90;;
24096;SDS011;12275;48.550;12.132;2023-06-24T04:12:20;1342.45;;;999.90;;
24096;SDS011;12275;48.550;12.132;2023-06-24T04:14:46;1343.22;;;999.90;;
24096;SDS011;12275;48.550;12.132;2023-06-24T04:17:12;1343.07;;;999.90;;
24096;SDS011;12275;48.550;12.132;2023-06-24T04:19:38;1345.55;;;999.90;;
24096;SDS011;12275;48.550;12.132;2023-06-24T04:22:04;1345.63;;;999.90;;
24096;SDS011;12275;48.550;12.132;2023-06-24T04:24:30;1345.13;;;999.90;;
24096;SDS011;12275;48.550;12.132;2023-06-24T04:26:57;1345.85;;;999.90;;
24096;SDS011;12275;48.550;12.132;2023-06-24T04:29:23;1351.18;;;999.90;;
24096;SDS011;12275;48.550;12.132;2023-06-24T04:31:49;1345.07;;;999.90;;
24096;SDS011;12275;48.550;12.132;2023-06-24T04:34:15;1341.60;;;999.90;;
24096;SDS011;12275;48.550;12.132;2023-06-24T04:36:41;1338.05;;;999.90;;
24096;SDS011;12275;48.550;12.132;2023-06-24T04:39:07;1326.28;;;999.90;;
24096;SDS011;12275;48.550;12.132;2023-06-24T04:41:33;1324.22;;;999.90;;
24096;SDS011;12275;48.550;12.132;2023-06-24T04:43:59;1318.15;;;999.90;;
24096;SDS011;12275;48.550;12.132;2023-06-24T04:46:26;1322.78;;;999.90;;
24096;SDS011;12275;48.550;12.132;2023-06-24T04:48:52;1331.70;;;999.90;;
24096;SDS011;12275;48.550;12.132;2023-06-24T04:51:18;1325.32;;;999.90;;
24096;SDS011;12275;48.550;12.132;2023-06-24T04:53:44;1327.97;;;999.90;;
24096;SDS011;12275;48.550;12.132;2023-06-24T04:56:10;1320.72;;;999.90;;
24096;SDS011;12275;48.550;12.132;2023-06-24T04:58:36;1319.55;;;999.90;;
24096;SDS011;12275;48.550;12.132;2023-06-24T05:01:02;1322.87;;;999.90;;
24096;SDS011;12275;48.550;12.132;2023-06-24T05:03:27;1320.70;;;999.90;;
24096;SDS011;12275;48.550;12.132;2023-06-24T05:05:53;1318.13;;;999.90;;
24096;SDS011;12275;48.550;12.132;2023-06-24T05:08:19;1330.15;;;999.90;;
24096;SDS011;12275;48.550;12.132;2023-06-24T05:10:45;1324.20;;;999.90;;
24096;SDS011;12275;48.550;12.132;2023-06-24T05:13:11;1331.10;;;999.90;;
24096;SDS011;12275;48.550;12.132;2023-06-24T05:15:37;1335.55;;;999.90;;
24096;SDS011;12275;48.550;12.132;2023-06-24T05:18:03;1326.97;;;999.90;;
24096;SDS011;12275;48.550;12.132;2023-06-24T05:20:29;1327.80;;;999.90;;
24096;SDS011;12275;48.550;12.132;2023-06-24T05:22:55;1324.77;;;999.90;;
24096;SDS011;12275;48.550;12.132;2023-06-24T05:25:21;1330.38;;;999.90;;
24096;SDS011;12275;48.550;12.132;2023-06-24T05:27:47;1331.63;;;999.90;;
24096;SDS011;12275;48.550;12.132;2023-06-24T05:30:13;1326.60;;;999.90;;
24096;SDS011;12275;48.550;12.132;2023-06-24T05:32:40;1334.75;;;999.90;;
24096;SDS011;12275;48.550;12.132;2023-06-24T05:35:06;1334.72;;;999.90;;
24096;SDS011;12275;48.550;12.132;2023-06-24T05:37:32;1339.53;;;999.90;;
24096;SDS011;12275;48.550;12.132;2023-06-24T05:39:58;1340.70;;;999.90;;
24096;SDS011;12275;48.550;12.132;2023-06-24T05:42:26;1338.17;;;999.90;;
24096;SDS011;12275;48.550;12.132;2023-06-24T05:44:52;1341.65;;;999.90;;
24096;SDS011;12275;48.550;12.132;2023-06-24T05:47:18;1341.55;;;999.90;;
24096;SDS011;12275;48.550;12.132;2023-06-24T05:49:44;1332.65;;;999.90;;
24096;SDS011;12275;48.550;12.132;2023-06-24T05:52:11;1336.88;;;999.90;;
24096;SDS011;12275;48.550;12.132;2023-06-24T05:54:37;1345.13;;;999.90;;
24096;SDS011;12275;48.550;12.132;2023-06-24T05:57:03;1336.18;;;999.90;;
24096;SDS011;12275;48.550;12.132;2023-06-24T05:59:33;1343.70;;;999.90;;
24096;SDS011;12275;48.550;12.132;2023-06-24T06:01:59;1345.73;;;999.90;;
24096;SDS011;12275;48.550;12.132;2023-06-24T06:04:26;1340.30;;;999.90;;
24096;SDS011;12275;48.550;12.132;2023-06-24T06:06:52;1350.67;;;999.90;;
24096;SDS011;12275;48.550;12.132;2023-06-24T06:09:20;1332.75;;;999.90;;
24096;SDS011;12275;48.550;12.132;2023-06-24T06:11:46;1344.93;;;999.90;;
24096;SDS011;12275;48.550;12.132;2023-06-24T06:14:12;1330.32;;;999.90;;
24096;SDS011;12275;48.550;12.132;2023-06-24T06:16:38;1348.50;;;999.90;;
24096;SDS011;12275;48.550;12.132;2023-06-24T06:19:04;1337.72;;;999.90;;
24096;SDS011;12275;48.550;12.132;2023-06-24T06:21:31;1348.97;;;999.90;;
24096;SDS011;12275;48.550;12.132;2023-06-24T06:23:57;1345.80;;;999.90;;
24096;SDS011;12275;48.550;12.132;2023-06-24T06:26:23;1358.28;;;999.90;;
24096;SDS011;12275;48.550;12.132;2023-06-24T06:28:50;1350.00;;;999.90;;
24096;SDS011;12275;48.550;12.132;2023-06-24T06:31:18;1339.10;;;999.90;;
24096;SDS011;12275;48.550;12.132;2023-06-24T06:33:44;1350.40;;;999.90;;
24096;SDS011;12275;48.550;12.132;2023-06-24T06:36:10;1344.97;;;999.90;;
24096;SDS011;12275;48.550;12.132;2023-06-24T06:38:36;1327.60;;;999.90;;
24096;SDS011;12275;48.550;12.132;2023-06-24T06:41:02;1316.25;;;999.90;;
24096;SDS011;12275;48.550;12.132;2023-06-24T06:43:28;1336.53;;;999.90;;
24096;SDS011;12275;48.550;12.132;2023-06-24T06:45:54;1326.57;;;999.90;;
24096;SDS011;12275;48.550;12.132;2023-06-24T06:48:20;1333.43;;;999.90;;
24096;SDS011;12275;48.550;12.132;2023-06-24T06:50:46;1341.15;;;999.90;;
24096;SDS011;12275;48.550;12.132;2023-06-24T06:53:12;1328.43;;;999.90;;
24096;SDS011;12275;48.550;12.132;2023-06-24T06:55:39;1343.03;;;999.90;;
24096;SDS011;12275;48.550;12.132;2023-06-24T06:58:05;1340.85;;;999.90;;
24096;SDS011;12275;48.550;12.132;2023-06-24T07:00:31;1329.35;;;999.90;;
24096;SDS011;12275;48.550;12.132;2023-06-24T07:02:57;1331.00;;;999.90;;
24096;SDS011;12275;48.550;12.132;2023-06-24T07:05:23;1333.00;;;999.90;;
24096;SDS011;12275;48.550;12.132;2023-06-24T07:07:49;1329.25;;;999.90;;
24096;SDS011;12275;48.550;12.132;2023-06-24T07:10:15;1337.65;;;999.90;;
24096;SDS011;12275;48.550;12.132;2023-06-24T07:12:42;1344.20;;;999.90;;
24096;SDS011;12275;48.550;12.132;2023-06-24T07:15:08;1335.82;;;999.90;;
24096;SDS011;12275;48.550;12.132;2023-06-24T07:17:35;1343.63;;;999.90;;
24096;SDS011;12275;48.550;12.132;2023-06-24T07:20:03;1359.15;;;999.90;;
24096;SDS011;12275;48.550;12.132;2023-06-24T07:22:30;1341.93;;;999.90;;
24096;SDS011;12275;48.550;12.132;2023-06-24T07:24:56;1335.93;;;999.90;;
24096;SDS011;12275;48.550;12.132;2023-06-24T07:27:22;1348.78;;;999.90;;
24096;SDS011;12275;48.550;12.132;2023-06-24T07:29:48;1343.63;;;999.90;;
24096;SDS011;12275;48.550;12.132;2023-06-24T07:32:14;1357.60;;;999.90;;
24096;SDS011;12275;48.550;12.132;2023-06-24T07:34:40;1358.20;;;999.90;;
24096;SDS011;12275;48.550;12.132;2023-06-24T07:37:06;1368.03;;;999.90;;
24096;SDS011;12275;48.550;12.132;2023-06-24T07:39:32;1365.05;;;999.90;;
24096;SDS011;12275;48.550;12.132;2023-06-24T07:41:58;1349.83;;;999.90;;
24096;SDS011;12275;48.550;12.132;2023-06-24T07:44:25;1373.47;;;999.90;;
24096;SDS011;12275;48.550;12.132;2023-06-24T07:46:50;1356.20;;;999.90;;
24096;SDS011;12275;48.550;12.132;2023-06-24T07:49:17;1372.32;;;999.90;;
24096;SDS011;12275;48.550;12.132;2023-06-24T07:51:43;1369.83;;;999.90;;
24096;SDS011;12275;48.550;12.132;2023-06-24T07:54:12;1372.10;;;999.90;;
24096;SDS011;12275;48.550;12.132;2023-06-24T07:56:38;1367.63;;;999.90;;
24096;SDS011;12275;48.550;12.132;2023-06-24T07:59:04;1360.05;;;999.90;;
24096;SDS011;12275;48.550;12.132;2023-06-24T08:01:30;1354.63;;;999.90;;
24096;SDS011;12275;48.550;12.132;2023-06-24T08:03:56;1350.18;;;999.90;;
24096;SDS011;12275;48.550;12.132;2023-06-24T08:06:22;1346.90;;;999.90;;
24096;SDS011;12275;48.550;12.132;2023-06-24T08:08:49;1351.32;;;999.90;;
24096;SDS011;12275;48.550;12.132;2023-06-24T08:11:15;1355.20;;;999.90;;
24096;SDS011;12275;48.550;12.132;2023-06-24T08:13:41;1340.75;;;999.90;;
24096;SDS011;12275;48.550;12.132;2023-06-24T08:16:07;1328.50;;;999.90;;
24096;SDS011;12275;48.550;12.132;2023-06-24T08:18:33;1337.28;;;999.90;;
24096;SDS011;12275;48.550;12.132;2023-06-24T08:20:59;1347.82;;;999.90;;
24096;SDS011;12275;48.550;12.132;2023-06-24T08:23:25;1315.68;;;999.90;;
24096;SDS011;12275;48.550;12.132;2023-06-24T08:25:51;1311.45;;;999.90;;
24096;SDS011;12275;48.550;12.132;2023-06-24T08:28:17;1301.07;;;999.90;;
24096;SDS011;12275;48.550;12.132;2023-06-24T08:30:43;1286.20;;;999.90;;
24096;SDS011;12275;48.550;12.132;2023-06-24T08:33:09;1276.00;;;999.90;;
24096;SDS011;12275;48.550;12.132;2023-06-24T08:35:35;1280.80;;;999.90;;
24096;SDS011;12275;48.550;12.132;2023-06-24T08:38:01;1274.10;;;999.90;;
24096;SDS011;12275;48.550;12.132;2023-06-24T08:40:27;1240.27;;;999.90;;
24096;SDS011;12275;48.550;12.132;2023-06-24T08:42:53;1246.35;;;999.90;;
24096;SDS011;12275;48.550;12.132;2023-06-24T08:45:20;1225.80;;;999.90;;
24096;SDS011;12275;48.550;12.132;2023-06-24T08:47:47;1122.17;;;999.90;;
24096;SDS011;12275;48.550;12.132;2023-06-24T08:50:13;1078.45;;;983.80;;
24096;SDS011;12275;48.550;12.132;2023-06-24T08:52:42;1105.07;;;999.90;;
24096;SDS011;12275;48.550;12.132;2023-06-24T08:55:08;1125.03;;;999.90;;
24096;SDS011;12275;48.550;12.132;2023-06-24T08:57:36;1154.60;;;999.90;;
24096;SDS011;12275;48.550;12.132;2023-06-24T09:00:02;1043.30;;;949.95;;
24096;SDS011;12275;48.550;12.132;2023-06-24T09:02:29;1068.43;;;973.75;;
24096;SDS011;12275;48.550;12.132;2023-06-24T09:04:57;1067.88;;;972.03;;
24096;SDS011;12275;48.550;12.132;2023-06-24T09:07:27;1014.88;;;921.15;;
24096;SDS011;12275;48.550;12.132;2023-06-24T09:09:53;1078.43;;;981.22;;
24096;SDS011;12275;48.550;12.132;2023-06-24T09:12:20;1133.55;;;999.90;;
24096;SDS011;12275;48.550;12.132;2023-06-24T09:14:49;1218.13;;;999.90;;
24096;SDS011;12275;48.550;12.132;2023-06-24T09:17:15;1231.00;;;999.90;;
24096;SDS011;12275;48.550;12.132;2023-06-24T09:19:41;1216.75;;;999.90;;
24096;SDS011;12275;48.550;12.132;2023-06-24T09:22:08;1226.40;;;999.90;;
24096;SDS011;12275;48.550;12.132;2023-06-24T09:24:41;1222.43;;;999.90;;
24096;SDS011;12275;48.550;12.132;2023-06-24T09:27:07;1221.07;;;999.90;;
24096;SDS011;12275;48.550;12.132;2023-06-24T09:29:34;1227.25;;;999.90;;
24096;SDS011;12275;48.550;12.132;2023-06-24T09:32:03;1231.80;;;999.90;;
24096;SDS011;12275;48.550;12.132;2023-06-24T09:34:29;1241.18;;;999.90;;
24096;SDS011;12275;48.550;12.132;2023-06-24T09:36:56;1227.47;;;999.90;;
24096;SDS011;12275;48.550;12.132;2023-06-24T09:39:22;1236.47;;;999.90;;
24096;SDS011;12275;48.550;12.132;2023-06-24T09:41:58;1234.13;;;999.90;;
24096;SDS011;12275;48.550;12.132;2023-06-24T09:44:25;1228.95;;;999.90;;
24096;SDS011;12275;48.550;12.132;2023-06-24T09:46:51;1225.65;;;999.90;;
24096;SDS011;12275;48.550;12.132;2023-06-24T09:49:17;1234.05;;;999.90;;
24096;SDS011;12275;48.550;12.132;2023-06-24T09:51:46;1236.75;;;999.90;;
24096;SDS011;12275;48.550;12.132;2023-06-24T09:54:13;1235.82;;;999.90;;
24096;SDS011;12275;48.550;12.132;2023-06-24T09:56:41;1241.82;;;999.90;;
24096;SDS011;12275;48.550;12.132;2023-06-24T09:59:09;1239.13;;;999.90;;
24096;SDS011;12275;48.550;12.132;2023-06-24T10:01:38;1262.90;;;999.90;;
24096;SDS011;12275;48.550;12.132;2023-06-24T10:04:04;1255.95;;;999.90;;
24096;SDS011;12275;48.550;12.132;2023-06-24T10:06:31;1264.55;;;999.90;;
24096;SDS011;12275;48.550;12.132;2023-06-24T10:08:58;1264.25;;;999.90;;
24096;SDS011;12275;48.550;12.132;2023-06-24T10:11:24;1260.57;;;999.90;;
24096;SDS011;12275;48.550;12.132;2023-06-24T10:13:51;1259.85;;;999.90;;
24096;SDS011;12275;48.550;12.132;2023-06-24T10:16:17;1246.63;;;999.90;;
24096;SDS011;12275;48.550;12.132;2023-06-24T10:18:43;1254.60;;;999.90;;
24096;SDS011;12275;48.550;12.132;2023-06-24T10:21:10;1260.40;;;999.90;;
24096;SDS011;12275;48.550;12.132;2023-06-24T10:23:40;1254.57;;;999.90;;
24096;SDS011;12275;48.550;12.132;2023-06-24T10:26:10;1249.80;;;999.90;;
24096;SDS011;12275;48.550;12.132;2023-06-24T10:31:29;1273.72;;;999.90;;
24096;SDS011;12275;48.550;12.132;2023-06-24T10:42:43;1273.30;;;999.90;;
24096;SDS011;12275;48.550;12.132;2023-06-24T10:47:45;1270.13;;;999.90;;
24096;SDS011;12275;48.550;12.132;2023-06-24T10:50:12;1288.63;;;999.90;;
24096;SDS011;12275;48.550;12.132;2023-06-24T10:52:42;1262.83;;;999.90;;
24096;SDS011;12275;48.550;12.132;2023-06-24T10:55:08;1285.07;;;999.90;;
24096;SDS011;12275;48.550;12.132;2023-06-24T10:57:35;1271.70;;;999.90;;
24096;SDS011;12275;48.550;12.132;2023-06-24T11:00:01;1270.43;;;999.90;;
24096;SDS011;12275;48.550;12.132;2023-06-24T11:02:28;1273.53;;;999.90;;
24096;SDS011;12275;48.550;12.132;2023-06-24T11:04:58;1269.78;;;999.90;;
24096;SDS011;12275;48.550;12.132;2023-06-24T11:07:25;1261.03;;;999.90;;
24096;SDS011;12275;48.550;12.132;2023-06-24T11:09:52;1269.17;;;999.90;;
24096;SDS011;12275;48.550;12.132;2023-06-24T11:12:19;1264.60;;;999.90;;
24096;SDS011;12275;48.550;12.132;2023-06-24T11:14:49;1267.03;;;999.90;;
24096;SDS011;12275;48.550;12.132;2023-06-24T11:17:15;1280.15;;;999.90;;
24096;SDS011;12275;48.550;12.132;2023-06-24T11:19:40;1277.35;;;999.90;;
24096;SDS011;12275;48.550;12.132;2023-06-24T11:22:08;1274.82;;;999.90;;
24096;SDS011;12275;48.550;12.132;2023-06-24T11:24:35;1277.03;;;999.90;;
24096;SDS011;12275;48.550;12.132;2023-06-24T11:27:01;1274.33;;;999.90;;
24096;SDS011;12275;48.550;12.132;2023-06-24T11:29:28;1290.50;;;999.90;;
24096;SDS011;12275;48.550;12.132;2023-06-24T11:31:55;1277.43;;;999.90;;
24096;SDS011;12275;48.550;12.132;2023-06-24T11:34:21;1276.65;;;999.90;;
24096;SDS011;12275;48.550;12.132;2023-06-24T11:36:47;1280.68;;;999.90;;
24096;SDS011;12275;48.550;12.132;2023-06-24T11:39:20;1278.22;;;999.90;;
24096;SDS011;12275;48.550;12.132;2023-06-24T11:41:47;1282.93;;;999.90;;
24096;SDS011;12275;48.550;12.132;2023-06-24T11:44:13;1275.68;;;999.90;;
24096;SDS011;12275;48.550;12.132;2023-06-24T11:46:39;1285.63;;;999.90;;
24096;SDS011;12275;48.550;12.132;2023-06-24T11:49:06;1294.32;;;999.90;;
24096;SDS011;12275;48.550;12.132;2023-06-24T11:51:33;1304.93;;;999.90;;
24096;SDS011;12275;48.550;12.132;2023-06-24T11:53:59;1299.18;;;999.90;;
24096;SDS011;12275;48.550;12.132;2023-06-24T11:59:21;1300.00;;;999.90;;
24096;SDS011;12275;48.550;12.132;2023-06-24T12:01:57;1307.65;;;999.90;;
24096;SDS011;12275;48.550;12.132;2023-06-24T12:04:28;1305.35;;;999.90;;
24096;SDS011;12275;48.550;12.132;2023-06-24T12:06:54;1297.25;;;999.90;;
24096;SDS011;12275;48.550;12.132;2023-06-24T12:09:20;1310.43;;;999.90;;
24096;SDS011;12275;48.550;12.132;2023-06-24T12:11:46;1303.97;;;999.90;;
24096;SDS011;12275;48.550;12.132;2023-06-24T12:14:12;1305.85;;;999.90;;
24096;SDS011;12275;48.550;12.132;2023-06-24T12:16:38;1340.33;;;999.90;;
24096;SDS011;12275;48.550;12.132;2023-06-24T12:19:05;1335.43;;;999.90;;
24096;SDS011;12275;48.550;12.132;2023-06-24T12:21:32;1318.75;;;999.90;;
24096;SDS011;12275;48.550;12.132;2023-06-24T12:23:58;1316.20;;;999.90;;
24096;SDS011;12275;48.550;12.132;2023-06-24T12:26:24;1328.53;;;999.90;;
24096;SDS011;12275;48.550;12.132;2023-06-24T12:28:53;1310.63;;;999.90;;
24096;SDS011;12275;48.550;12.132;2023-06-24T12:31:21;1336.22;;;999.90;;
24096;SDS011;12275;48.550;12.132;2023-06-24T12:33:47;1324.83;;;999.90;;
24096;SDS011;12275;48.550;12.132;2023-06-24T12:36:13;1329.60;;;999.90;;
24096;SDS011;12275;48.550;12.132;2023-06-24T12:38:39;1336.47;;;999.90;;
24096;SDS011;12275;48.550;12.132;2023-06-24T12:41:05;1327.63;;;999.90;;
24096;SDS011;12275;48.550;12.132;2023-06-24T12:43:32;1332.10;;;999.90;;
24096;SDS011;12275;48.550;12.132;2023-06-24T12:45:58;1326.50;;;999.90;;
24096;SDS011;12275;48.550;12.132;2023-06-24T12:48:24;1319.25;;;999.90;;
24096;SDS011;12275;48.550;12.132;2023-06-24T12:50:50;1335.17;;;999.90;;
24096;SDS011;12275;48.550;12.132;2023-06-24T12:53:21;1309.32;;;999.90;;
24096;SDS011;12275;48.550;12.132;2023-06-24T12:55:47;1300.23;;;999.90;;
24096;SDS011;12275;48.550;12.132;2023-06-24T12:58:14;1324.82;;;999.90;;
24096;SDS011;12275;48.550;12.132;2023-06-24T13:00:40;1318.17;;;999.90;;
24096;SDS011;12275;48.550;12.132;2023-06-24T13:03:06;1316.80;;;999.90;;
24096;SDS011;12275;48.550;12.132;2023-06-24T13:05:32;1322.22;;;999.90;;
24096;SDS011;12275;48.550;12.132;2023-06-24T13:07:58;1303.18;;;999.90;;
24096;SDS011;12275;48.550;12.132;2023-06-24T13:10:24;1331.07;;;999.90;;
24096;SDS011;12275;48.550;12.132;2023-06-24T13:12:50;1311.70;;;999.90;;
24096;SDS011;12275;48.550;12.132;2023-06-24T13:15:17;1315.57;;;999.90;;
24096;SDS011;12275;48.550;12.132;2023-06-24T13:17:43;1324.28;;;999.90;;
24096;SDS011;12275;48.550;12.132;2023-06-24T13:20:09;1295.50;;;999.90;;
24096;SDS011;12275;48.550;12.132;2023-06-24T13:22:35;1324.68;;;999.90;;
24096;SDS011;12275;48.550;12.132;2023-06-24T13:25:01;1317.60;;;999.90;;
24096;SDS011;12275;48.550;12.132;2023-06-24T13:27:27;1292.03;;;999.90;;
24096;SDS011;12275;48.550;12.132;2023-06-24T13:29:53;1304.75;;;999.90;;
24096;SDS011;12275;48.550;12.132;2023-06-24T13:32:19;1317.07;;;999.90;;
24096;SDS011;12275;48.550;12.132;2023-06-24T13:34:45;1300.95;;;999.90;;
24096;SDS011;12275;48.550;12.132;2023-06-24T13:37:12;1298.65;;;999.90;;
24096;SDS011;12275;48.550;12.132;2023-06-24T13:39:38;1299.47;;;999.90;;
24096;SDS011;12275;48.550;12.132;2023-06-24T13:42:04;1313.20;;;999.90;;
24096;SDS011;12275;48.550;12.132;2023-06-24T13:44:30;1307.55;;;999.90;;
24096;SDS011;12275;48.550;12.132;2023-06-24T13:46:56;1289.78;;;999.90;;
24096;SDS011;12275;48.550;12.132;2023-06-24T13:49:22;1307.60;;;999.90;;
24096;SDS011;12275;48.550;12.132;2023-06-24T13:51:48;1318.82;;;999.90;;
24096;SDS011;12275;48.550;12.132;2023-06-24T13:54:14;1315.97;;;999.90;;
24096;SDS011;12275;48.550;12.132;2023-06-24T13:56:40;1303.57;;;999.90;;
24096;SDS011;12275;48.550;12.132;2023-06-24T13:59:06;1309.60;;;999.90;;